createdAt,value
2023-10-22T00:00:27.755Z,1.05
2023-10-22T00:05:29.277Z,0.90
2023-10-22T00:10:30.892Z,1.00
2023-10-22T00:15:32.423Z,0.95
2023-10-22T00:20:34.393Z,1.42
2023-10-22T00:25:37.110Z,1.10
2023-10-22T00:30:38.778Z,1.00
2023-10-22T00:35:40.390Z,0.80
2023-10-22T00:40:41.910Z,0.80
2023-10-22T00:45:43.673Z,0.98
2023-10-22T00:50:45.414Z,0.77
2023-10-22T00:55:48.264Z,1.30
2023-10-22T01:00:49.903Z,1.35
2023-10-22T01:05:51.546Z,1.08
2023-10-22T01:10:53.125Z,1.27
2023-10-22T01:15:54.661Z,1.40
2023-10-22T01:20:56.487Z,1.33
2023-10-22T01:25:58.052Z,1.60
2023-10-22T01:30:59.762Z,1.75
2023-10-22T01:36:01.493Z,2.28
2023-10-22T01:41:07.438Z,2.90
2023-10-22T01:46:09.023Z,3.90
2023-10-22T01:51:10.655Z,3.67
2023-10-22T01:56:12.181Z,3.83
2023-10-22T02:01:13.903Z,3.42
2023-10-22T02:06:16.119Z,3.80
2023-10-22T02:11:19.725Z,4.03
2023-10-22T02:16:21.317Z,4.10
2023-10-22T02:21:27.219Z,4.43
2023-10-22T02:26:28.813Z,4.40
2023-10-22T02:31:30.563Z,5.13
2023-10-22T02:36:32.736Z,4.90
2023-10-22T02:41:34.790Z,5.07
2023-10-22T02:46:36.618Z,6.10
2023-10-22T02:51:38.199Z,5.00
2023-10-22T02:56:40.739Z,5.38
2023-10-22T03:01:42.461Z,5.40
2023-10-22T03:06:44.010Z,5.85
2023-10-22T03:11:45.625Z,6.15
2023-10-22T03:16:48.705Z,7.35
2023-10-22T03:21:50.366Z,6.93
2023-10-22T03:26:51.936Z,8.23
2023-10-22T03:31:53.476Z,8.23
2023-10-22T03:36:55.101Z,7.82
2023-10-22T03:41:56.652Z,9.07
2023-10-22T03:46:58.178Z,4.20
2023-10-22T03:52:00.094Z,3.08
2023-10-22T03:57:01.721Z,2.20
2023-10-22T04:02:03.585Z,1.60
2023-10-22T04:07:05.241Z,1.63
2023-10-22T04:12:07.234Z,1.67
2023-10-22T04:17:08.974Z,1.90
2023-10-22T04:22:10.486Z,1.92
2023-10-22T04:27:12.663Z,2.30
2023-10-22T04:32:14.543Z,2.22
2023-10-22T04:37:18.337Z,2.42
2023-10-22T04:42:19.937Z,3.25
2023-10-22T04:47:22.188Z,1.67
2023-10-22T04:52:32.248Z,2.00
2023-10-22T04:57:34.014Z,1.55
2023-10-22T05:02:35.965Z,2.53
2023-10-22T05:07:37.662Z,2.05
2023-10-22T05:12:39.339Z,2.30
2023-10-22T05:17:41.529Z,2.72
2023-10-22T05:22:45.544Z,3.08
2023-10-22T05:27:47.533Z,4.07
2023-10-22T05:32:49.254Z,3.10
2023-10-22T05:37:53.043Z,4.15
2023-10-22T05:42:54.522Z,4.20
2023-10-22T05:47:56.147Z,3.97
2023-10-22T05:52:57.766Z,3.58
2023-10-22T05:57:59.289Z,4.15
2023-10-22T06:03:00.992Z,3.55
2023-10-22T06:08:02.791Z,2.63
2023-10-22T06:13:04.292Z,2.38
2023-10-22T06:18:06.613Z,2.28
2023-10-22T06:23:08.195Z,2.58
2023-10-22T06:28:09.813Z,1.80
2023-10-22T06:33:11.494Z,1.40
2023-10-22T06:38:13.310Z,2.22
2023-10-22T06:43:14.901Z,1.40
2023-10-22T06:48:16.530Z,1.33
2023-10-22T06:53:18.494Z,1.50
2023-10-22T06:58:25.960Z,1.00
2023-10-22T07:03:27.737Z,1.50
2023-10-22T07:08:30.047Z,1.35
2023-10-22T07:13:31.573Z,1.23
2023-10-22T07:18:33.269Z,1.20
2023-10-22T07:23:34.955Z,1.15
2023-10-22T07:28:42.360Z,0.95
2023-10-22T07:33:44.344Z,0.88
2023-10-22T07:38:49.437Z,1.63
2023-10-22T07:43:51.245Z,0.95
2023-10-22T07:48:52.822Z,0.90
2023-10-22T07:53:54.477Z,0.85
2023-10-22T07:58:57.240Z,1.00
2023-10-22T08:03:59.123Z,2.00
2023-10-22T08:09:00.710Z,0.93
2023-10-22T08:14:02.262Z,0.90
2023-10-22T08:19:04.098Z,0.95
2023-10-22T08:24:06.330Z,0.90
2023-10-22T08:29:09.405Z,1.08
2023-10-22T08:34:10.974Z,1.25
2023-10-22T08:39:12.744Z,0.90
2023-10-22T08:44:15.526Z,0.98
2023-10-22T08:49:20.790Z,0.90
2023-10-22T08:54:23.768Z,1.00
2023-10-22T08:59:25.476Z,0.77
2023-10-22T09:04:27.046Z,0.90
2023-10-22T09:09:30.204Z,0.90
2023-10-22T09:14:31.920Z,0.80
2023-10-22T09:19:37.804Z,0.60
2023-10-22T09:24:50.346Z,0.75
2023-10-22T09:29:52.889Z,0.40
2023-10-22T09:34:54.549Z,0.50
2023-10-22T09:39:56.052Z,0.95
2023-10-22T09:44:57.573Z,0.85
2023-10-22T09:50:05.944Z,0.70
2023-10-22T09:55:11.647Z,0.80
2023-10-22T10:00:14.111Z,0.60
2023-10-22T10:05:16.469Z,0.60
2023-10-22T10:10:18.285Z,1.20
2023-10-22T10:15:36.366Z,0.90
2023-10-22T10:20:41.057Z,0.70
2023-10-22T10:25:44.082Z,1.50
2023-10-22T10:30:45.680Z,1.33
2023-10-22T10:35:49.191Z,1.10
2023-10-22T10:40:56.879Z,1.42
2023-10-22T10:46:25.089Z,1.20
2023-10-22T10:56:47.404Z,2.00
2023-10-22T11:02:11.395Z,1.15
2023-10-22T11:07:25.947Z,2.92
2023-10-22T11:12:30.346Z,1.60
2023-10-22T11:17:32.219Z,1.70
2023-10-22T11:22:34.102Z,1.25
2023-10-22T11:27:39.608Z,1.35
2023-10-22T11:32:48.737Z,1.85
2023-10-22T11:37:50.726Z,2.15
2023-10-22T11:42:52.490Z,1.90
2023-10-22T11:48:20.422Z,1.73
2023-10-22T11:53:22.038Z,1.50
2023-10-22T11:58:28.257Z,2.70
2023-10-22T12:03:30.012Z,2.00
2023-10-22T12:08:31.672Z,0.80
2023-10-22T12:13:33.214Z,0.93
2023-10-22T12:18:34.820Z,1.00
2023-10-22T12:23:48.852Z,0.60
2023-10-22T12:28:51.978Z,0.70
2023-10-22T12:33:53.520Z,0.90
2023-10-22T12:38:55.847Z,1.52
2023-10-22T12:43:57.494Z,0.88
2023-10-22T12:49:00.885Z,0.70
2023-10-22T12:54:05.654Z,0.70
2023-10-22T12:59:07.274Z,0.70
2023-10-22T13:04:09.046Z,0.60
2023-10-22T13:09:10.770Z,0.80
2023-10-22T13:14:12.370Z,0.70
2023-10-22T13:19:13.908Z,0.70
2023-10-22T13:24:15.641Z,1.00
2023-10-22T13:29:18.826Z,0.70
2023-10-22T13:34:20.411Z,0.80
2023-10-22T13:39:22.116Z,0.80
2023-10-22T13:44:23.721Z,0.65
2023-10-22T13:49:25.266Z,0.65
2023-10-22T13:54:26.882Z,0.80
2023-10-22T13:59:28.536Z,0.88
2023-10-22T14:04:30.291Z,0.70
2023-10-22T14:09:32.021Z,0.60
2023-10-22T14:14:38.468Z,0.95
2023-10-22T14:19:40.188Z,1.00
2023-10-22T14:24:41.740Z,0.50
2023-10-22T14:29:43.612Z,0.90
2023-10-22T14:34:45.457Z,0.63
2023-10-22T14:39:47.054Z,0.70
2023-10-22T14:44:48.666Z,0.75
2023-10-22T14:49:50.220Z,0.65
2023-10-22T14:54:51.738Z,0.90
2023-10-22T14:59:53.274Z,0.80
2023-10-22T15:04:55.801Z,0.98
2023-10-22T15:09:58.318Z,0.80
2023-10-22T15:14:59.951Z,0.77
2023-10-22T15:20:01.491Z,0.80
2023-10-22T15:25:03.338Z,0.80
2023-10-22T15:30:05.972Z,0.80
2023-10-22T15:35:07.674Z,0.98
2023-10-22T15:40:09.656Z,0.90
2023-10-22T15:45:11.269Z,0.88
2023-10-22T15:50:16.092Z,0.80
2023-10-22T15:55:18.155Z,0.93
2023-10-22T16:00:22.835Z,0.90
2023-10-22T16:05:24.553Z,0.90
2023-10-22T16:10:26.909Z,0.90
2023-10-22T16:15:29.705Z,0.75
2023-10-22T16:20:31.367Z,1.10
2023-10-22T16:25:33.224Z,1.50
2023-10-22T16:30:34.778Z,2.28
2023-10-22T16:35:36.291Z,2.20
2023-10-22T16:40:39.784Z,4.13
2023-10-22T16:45:46.937Z,10.05
2023-10-22T16:50:48.648Z,3.70
2023-10-22T16:55:50.196Z,7.18
2023-10-22T17:00:51.776Z,8.90
2023-10-22T17:05:54.675Z,8.38
2023-10-22T17:10:56.241Z,8.88
2023-10-22T17:16:00.988Z,4.90
2023-10-22T17:21:03.253Z,3.58
2023-10-22T17:26:04.840Z,3.33
2023-10-22T17:31:06.449Z,3.03
2023-10-22T17:36:08.111Z,2.85
2023-10-22T17:41:09.690Z,4.57
2023-10-22T17:46:15.628Z,5.38
2023-10-22T17:51:17.287Z,2.95
2023-10-22T17:56:19.325Z,2.40
2023-10-22T18:01:20.930Z,2.92
2023-10-22T18:06:22.714Z,3.58
2023-10-22T18:11:26.242Z,3.40
2023-10-22T18:16:27.951Z,4.97
2023-10-22T18:21:29.865Z,5.18
2023-10-22T18:26:31.516Z,6.80
2023-10-22T18:31:33.213Z,4.88
2023-10-22T18:36:34.959Z,5.15
2023-10-22T18:41:36.560Z,4.50
2023-10-22T18:46:39.368Z,4.78
2023-10-22T18:51:41.365Z,4.22
2023-10-22T18:56:43.007Z,3.55
2023-10-22T19:01:44.625Z,3.85
2023-10-22T19:06:46.215Z,5.55
2023-10-22T19:11:48.210Z,4.65
2023-10-22T19:16:49.854Z,4.60
2023-10-22T19:21:52.616Z,3.60
2023-10-22T19:26:54.171Z,3.15
2023-10-22T19:31:55.699Z,3.28
2023-10-22T19:36:57.600Z,3.90
2023-10-22T19:41:59.246Z,3.47
2023-10-22T19:47:00.871Z,4.40
2023-10-22T19:52:04.026Z,5.20
2023-10-22T19:57:07.684Z,4.22
2023-10-22T20:02:17.991Z,4.38
2023-10-22T20:07:20.216Z,5.00
2023-10-22T20:12:22.219Z,6.35
2023-10-22T20:17:23.807Z,6.32
2023-10-22T20:22:25.383Z,7.53
2023-10-22T20:27:26.972Z,10.13
2023-10-22T20:32:28.657Z,12.10
2023-10-22T20:37:30.174Z,11.60
2023-10-22T20:42:32.777Z,9.77
2023-10-22T20:47:34.365Z,9.32
2023-10-22T20:52:38.364Z,9.00
2023-10-22T20:57:40.106Z,9.15
2023-10-22T21:02:43.226Z,8.48
2023-10-22T21:07:44.749Z,6.75
2023-10-22T21:12:48.511Z,6.32
2023-10-22T21:17:50.365Z,6.15
2023-10-22T21:22:54.845Z,5.50
2023-10-22T21:27:56.379Z,5.00
2023-10-22T21:32:58.062Z,5.05
2023-10-22T21:38:00.060Z,5.03
2023-10-22T21:43:01.921Z,4.97
2023-10-22T21:48:03.504Z,5.15
2023-10-22T21:53:05.078Z,5.13
2023-10-22T21:58:06.837Z,5.20
2023-10-22T22:03:08.426Z,5.50
2023-10-22T22:08:10.114Z,5.28
2023-10-22T22:13:12.192Z,5.85
2023-10-22T22:18:13.848Z,5.72
2023-10-22T22:23:15.494Z,5.60
2023-10-22T22:28:16.996Z,5.70
2023-10-22T22:33:18.807Z,5.40
2023-10-22T22:38:20.449Z,5.60
2023-10-22T22:43:22.561Z,5.38
2023-10-22T22:48:24.233Z,5.75
2023-10-22T22:53:25.841Z,5.80
2023-10-22T22:58:27.344Z,6.03
2023-10-22T23:03:28.937Z,5.80
2023-10-22T23:08:30.492Z,5.90
2023-10-22T23:13:32.032Z,5.93
2023-10-22T23:18:33.594Z,5.38
2023-10-22T23:23:35.185Z,6.28
2023-10-22T23:28:36.698Z,5.80
2023-10-22T23:33:38.309Z,5.82
2023-10-22T23:38:39.972Z,6.30
2023-10-22T23:43:41.534Z,6.20
2023-10-22T23:48:43.127Z,5.97
2023-10-22T23:53:44.698Z,6.13
2023-10-22T23:58:46.217Z,6.55
